Oil City, Louisiana
Current Conditions -  °F | °C
As of 2:51 PM on Monday 22 Dec 2014 (Local Time) from KDTN Reporting Station
Broken Clouds Broken Clouds  
Wind Chill: 66°   Ceiling: 3300
Heat Index: 66°   Visibility: 10mi
Dew Point: 55°   Wind: 10mph
Humidity: 68%   Direction: 180°S
Pressure: 29.54"   Gusts: NA
Location:  32.74°N, 93.97°W
Report Text: KDTN 222051Z 18009KT 10SM FEW020 SCT026 BKN033 19/13 A2954 RMK AO2
Loading
Personal Weather Stations






























Interactive Weather Map New forecast layout! Learn more

10-Day Weather Forecast

Advertisements
Track Severe Weather on mobile